LOWG/GRZ METAR and TAF weather

Enter ICAO airport designator
Station Type Date Time Source
LOWG METAR 2022/01/26 07:20 UTC NOAA

LOWG 260720Z 15003KT 8000 FEW016 BKN017 M01/M02 Q1029 NOSIG


Station Type Date Time Source
LOWG Decoded METAR 2022/01/26 07:20 UTC NOAA

Graz-Thalerhof-Flughafen, Austria (LOWG) 47-00N 015-26E 347M
Jan 26, 2022 - 02:20 AM EST / 2022.01.26 0720 UTC
Wind: from the SSE (150 degrees) at 3 MPH (3 KT):0
Visibility: 4 mile(s):0
Sky conditions: mostly cloudy
Temperature: 30 F (-1 C)
Dew Point: 28 F (-2 C)
Relative Humidity: 92%
Pressure (altimeter): 30.39 in. Hg (1029 hPa)
ob: LOWG 260720Z 15003KT 8000 FEW016 BKN017 M01/M02 Q1029 NOSIG
cycle: 7

Station Type Date Time Source
LOWG TAF 2022/01/26 06:21 UTC NOAA

TAF TAF LOWG 260515Z 2606/2706 VRB02KT 9999 BKN018 TX04/2613Z TNM04/2704Z PROB30
TEMPO 2606/2608 0800 BCFG FZFG BKN004 PROB40
TEMPO 2620/2706 0800 BCFG FZFG BKN003

Example: see airport list